sensor_id;sensor_type;location;lat;lon;timestamp;P1;durP1;ratioP1;P2;durP2;ratioP2
69900;SDS011;57183;50.930;5.406;2022-12-18T00:01:41;81.55;;;33.47;;
69900;SDS011;57183;50.930;5.406;2022-12-18T00:04:10;72.78;;;29.15;;
69900;SDS011;57183;50.930;5.406;2022-12-18T00:06:44;73.53;;;31.23;;
69900;SDS011;57183;50.930;5.406;2022-12-18T00:09:10;70.57;;;31.70;;
69900;SDS011;57183;50.930;5.406;2022-12-18T00:11:36;77.80;;;34.05;;
69900;SDS011;57183;50.930;5.406;2022-12-18T00:14:01;71.45;;;33.03;;
69900;SDS011;57183;50.930;5.406;2022-12-18T00:16:27;70.88;;;32.58;;
69900;SDS011;57183;50.930;5.406;2022-12-18T00:18:57;83.55;;;34.28;;
69900;SDS011;57183;50.930;5.406;2022-12-18T00:21:22;75.28;;;32.42;;
69900;SDS011;57183;50.930;5.406;2022-12-18T00:23:49;78.00;;;34.17;;
69900;SDS011;57183;50.930;5.406;2022-12-18T00:26:16;80.72;;;32.55;;
69900;SDS011;57183;50.930;5.406;2022-12-18T00:28:44;78.13;;;31.13;;
69900;SDS011;57183;50.930;5.406;2022-12-18T00:31:11;86.95;;;37.78;;
69900;SDS011;57183;50.930;5.406;2022-12-18T00:33:39;87.25;;;37.72;;
69900;SDS011;57183;50.930;5.406;2022-12-18T00:36:07;83.25;;;34.42;;
69900;SDS011;57183;50.930;5.406;2022-12-18T00:38:38;83.68;;;35.35;;
69900;SDS011;57183;50.930;5.406;2022-12-18T00:41:05;77.60;;;35.03;;
69900;SDS011;57183;50.930;5.406;2022-12-18T00:43:32;80.55;;;34.33;;
69900;SDS011;57183;50.930;5.406;2022-12-18T00:45:59;74.22;;;31.83;;
69900;SDS011;57183;50.930;5.406;2022-12-18T00:48:25;68.03;;;31.02;;
69900;SDS011;57183;50.930;5.406;2022-12-18T00:50:51;74.70;;;30.75;;
69900;SDS011;57183;50.930;5.406;2022-12-18T00:53:16;65.03;;;27.60;;
69900;SDS011;57183;50.930;5.406;2022-12-18T00:55:42;68.93;;;29.35;;
69900;SDS011;57183;50.930;5.406;2022-12-18T00:58:10;70.50;;;30.20;;
69900;SDS011;57183;50.930;5.406;2022-12-18T01:00:36;82.03;;;31.90;;
69900;SDS011;57183;50.930;5.406;2022-12-18T01:03:03;61.83;;;28.35;;
69900;SDS011;57183;50.930;5.406;2022-12-18T01:05:29;64.45;;;27.67;;
69900;SDS011;57183;50.930;5.406;2022-12-18T01:07:55;70.70;;;29.33;;
69900;SDS011;57183;50.930;5.406;2022-12-18T01:10:21;68.95;;;28.77;;
69900;SDS011;57183;50.930;5.406;2022-12-18T01:12:47;71.00;;;28.63;;
69900;SDS011;57183;50.930;5.406;2022-12-18T01:15:13;53.58;;;26.33;;
69900;SDS011;57183;50.930;5.406;2022-12-18T01:17:39;59.88;;;29.55;;
69900;SDS011;57183;50.930;5.406;2022-12-18T01:20:05;60.42;;;27.92;;
69900;SDS011;57183;50.930;5.406;2022-12-18T01:22:32;58.30;;;25.67;;
69900;SDS011;57183;50.930;5.406;2022-12-18T01:24:57;61.75;;;27.65;;
69900;SDS011;57183;50.930;5.406;2022-12-18T01:27:23;63.28;;;27.05;;
69900;SDS011;57183;50.930;5.406;2022-12-18T01:29:49;64.60;;;27.10;;
69900;SDS011;57183;50.930;5.406;2022-12-18T01:32:15;53.65;;;25.80;;
69900;SDS011;57183;50.930;5.406;2022-12-18T01:34:40;53.10;;;24.00;;
69900;SDS011;57183;50.930;5.406;2022-12-18T01:37:06;62.25;;;27.90;;
69900;SDS011;57183;50.930;5.406;2022-12-18T01:39:32;60.10;;;24.40;;
69900;SDS011;57183;50.930;5.406;2022-12-18T01:42:01;61.22;;;25.00;;
69900;SDS011;57183;50.930;5.406;2022-12-18T01:50:13;56.17;;;22.10;;
69900;SDS011;57183;50.930;5.406;2022-12-18T01:52:51;54.17;;;22.58;;
69900;SDS011;57183;50.930;5.406;2022-12-18T01:55:22;57.55;;;25.80;;
69900;SDS011;57183;50.930;5.406;2022-12-18T01:57:52;55.35;;;22.58;;
69900;SDS011;57183;50.930;5.406;2022-12-18T02:00:20;51.45;;;22.77;;
69900;SDS011;57183;50.930;5.406;2022-12-18T02:02:47;51.40;;;22.35;;
69900;SDS011;57183;50.930;5.406;2022-12-18T02:05:18;54.67;;;23.00;;
69900;SDS011;57183;50.930;5.406;2022-12-18T02:18:09;49.63;;;21.80;;
69900;SDS011;57183;50.930;5.406;2022-12-18T02:20:42;46.20;;;20.33;;
69900;SDS011;57183;50.930;5.406;2022-12-18T02:28:31;44.63;;;19.52;;
69900;SDS011;57183;50.930;5.406;2022-12-18T02:31:02;44.10;;;20.55;;
69900;SDS011;57183;50.930;5.406;2022-12-18T02:33:31;47.08;;;19.92;;
69900;SDS011;57183;50.930;5.406;2022-12-18T02:36:00;45.80;;;19.65;;
69900;SDS011;57183;50.930;5.406;2022-12-18T02:38:26;43.38;;;19.77;;
69900;SDS011;57183;50.930;5.406;2022-12-18T02:40:54;50.10;;;21.27;;
69900;SDS011;57183;50.930;5.406;2022-12-18T02:43:21;53.92;;;21.63;;
69900;SDS011;57183;50.930;5.406;2022-12-18T02:45:56;46.70;;;20.40;;
69900;SDS011;57183;50.930;5.406;2022-12-18T02:48:25;47.75;;;22.00;;
69900;SDS011;57183;50.930;5.406;2022-12-18T02:53:37;45.63;;;20.05;;
69900;SDS011;57183;50.930;5.406;2022-12-18T02:56:11;45.38;;;19.67;;
69900;SDS011;57183;50.930;5.406;2022-12-18T03:01:24;48.13;;;20.70;;
69900;SDS011;57183;50.930;5.406;2022-12-18T03:04:09;40.38;;;20.17;;
69900;SDS011;57183;50.930;5.406;2022-12-18T03:06:48;44.58;;;19.50;;
69900;SDS011;57183;50.930;5.406;2022-12-18T03:09:19;47.25;;;21.20;;
69900;SDS011;57183;50.930;5.406;2022-12-18T03:11:53;44.05;;;18.00;;
69900;SDS011;57183;50.930;5.406;2022-12-18T03:14:42;45.85;;;21.33;;
69900;SDS011;57183;50.930;5.406;2022-12-18T03:17:10;45.03;;;19.15;;
69900;SDS011;57183;50.930;5.406;2022-12-18T03:19:41;40.92;;;17.85;;
69900;SDS011;57183;50.930;5.406;2022-12-18T03:22:08;45.45;;;20.77;;
69900;SDS011;57183;50.930;5.406;2022-12-18T03:24:35;53.63;;;20.52;;
69900;SDS011;57183;50.930;5.406;2022-12-18T03:27:05;43.53;;;19.52;;
69900;SDS011;57183;50.930;5.406;2022-12-18T03:29:36;49.47;;;20.17;;
69900;SDS011;57183;50.930;5.406;2022-12-18T03:32:07;46.15;;;19.35;;
69900;SDS011;57183;50.930;5.406;2022-12-18T03:34:36;42.03;;;19.00;;
69900;SDS011;57183;50.930;5.406;2022-12-18T03:37:05;45.97;;;17.67;;
69900;SDS011;57183;50.930;5.406;2022-12-18T03:39:31;49.17;;;21.63;;
69900;SDS011;57183;50.930;5.406;2022-12-18T03:42:04;46.97;;;20.42;;
69900;SDS011;57183;50.930;5.406;2022-12-18T03:47:38;41.13;;;19.70;;
69900;SDS011;57183;50.930;5.406;2022-12-18T03:52:51;39.50;;;19.50;;
69900;SDS011;57183;50.930;5.406;2022-12-18T03:55:27;47.05;;;20.83;;
69900;SDS011;57183;50.930;5.406;2022-12-18T03:57:56;42.92;;;19.00;;
69900;SDS011;57183;50.930;5.406;2022-12-18T04:00:23;40.35;;;19.60;;
69900;SDS011;57183;50.930;5.406;2022-12-18T04:02:50;46.78;;;21.65;;
69900;SDS011;57183;50.930;5.406;2022-12-18T04:05:18;44.75;;;20.17;;
69900;SDS011;57183;50.930;5.406;2022-12-18T04:07:45;47.05;;;20.10;;
69900;SDS011;57183;50.930;5.406;2022-12-18T04:10:14;39.10;;;21.10;;
69900;SDS011;57183;50.930;5.406;2022-12-18T04:12:43;42.33;;;19.60;;
69900;SDS011;57183;50.930;5.406;2022-12-18T04:15:09;55.10;;;20.58;;
69900;SDS011;57183;50.930;5.406;2022-12-18T04:17:36;44.75;;;21.20;;
69900;SDS011;57183;50.930;5.406;2022-12-18T04:20:02;44.35;;;19.58;;
69900;SDS011;57183;50.930;5.406;2022-12-18T04:22:28;51.22;;;18.75;;
69900;SDS011;57183;50.930;5.406;2022-12-18T04:24:54;44.28;;;19.20;;
69900;SDS011;57183;50.930;5.406;2022-12-18T04:27:19;40.58;;;18.38;;
69900;SDS011;57183;50.930;5.406;2022-12-18T04:29:45;42.22;;;19.45;;
69900;SDS011;57183;50.930;5.406;2022-12-18T04:32:11;36.83;;;16.48;;
69900;SDS011;57183;50.930;5.406;2022-12-18T04:34:36;37.28;;;16.98;;
69900;SDS011;57183;50.930;5.406;2022-12-18T04:37:02;42.30;;;17.88;;
69900;SDS011;57183;50.930;5.406;2022-12-18T04:39:28;39.75;;;17.52;;
69900;SDS011;57183;50.930;5.406;2022-12-18T04:41:53;35.38;;;17.92;;
69900;SDS011;57183;50.930;5.406;2022-12-18T04:44:19;39.78;;;17.55;;
69900;SDS011;57183;50.930;5.406;2022-12-18T04:46:45;46.90;;;18.65;;
69900;SDS011;57183;50.930;5.406;2022-12-18T04:49:10;36.55;;;16.80;;
69900;SDS011;57183;50.930;5.406;2022-12-18T04:51:36;44.38;;;17.48;;
69900;SDS011;57183;50.930;5.406;2022-12-18T04:54:02;41.40;;;19.42;;
69900;SDS011;57183;50.930;5.406;2022-12-18T04:56:30;43.47;;;17.55;;
69900;SDS011;57183;50.930;5.406;2022-12-18T04:58:56;45.28;;;18.88;;
69900;SDS011;57183;50.930;5.406;2022-12-18T05:01:22;54.35;;;23.52;;
69900;SDS011;57183;50.930;5.406;2022-12-18T05:03:48;54.60;;;23.27;;
69900;SDS011;57183;50.930;5.406;2022-12-18T05:06:13;42.53;;;17.80;;
69900;SDS011;57183;50.930;5.406;2022-12-18T05:08:39;42.70;;;19.77;;
69900;SDS011;57183;50.930;5.406;2022-12-18T05:11:07;40.60;;;18.05;;
69900;SDS011;57183;50.930;5.406;2022-12-18T05:13:34;39.00;;;16.33;;
69900;SDS011;57183;50.930;5.406;2022-12-18T05:16:01;36.78;;;18.92;;
69900;SDS011;57183;50.930;5.406;2022-12-18T05:18:27;41.10;;;18.83;;
69900;SDS011;57183;50.930;5.406;2022-12-18T05:20:53;40.03;;;17.63;;
69900;SDS011;57183;50.930;5.406;2022-12-18T05:23:19;38.67;;;17.42;;
69900;SDS011;57183;50.930;5.406;2022-12-18T05:25:47;45.92;;;20.08;;
69900;SDS011;57183;50.930;5.406;2022-12-18T05:28:20;32.92;;;13.85;;
69900;SDS011;57183;50.930;5.406;2022-12-18T05:30:50;41.05;;;17.98;;
69900;SDS011;57183;50.930;5.406;2022-12-18T05:33:17;41.33;;;17.98;;
69900;SDS011;57183;50.930;5.406;2022-12-18T05:35:44;38.35;;;17.25;;
69900;SDS011;57183;50.930;5.406;2022-12-18T05:38:15;37.22;;;15.43;;
69900;SDS011;57183;50.930;5.406;2022-12-18T05:40:43;41.95;;;18.38;;
69900;SDS011;57183;50.930;5.406;2022-12-18T05:43:09;42.83;;;17.52;;
69900;SDS011;57183;50.930;5.406;2022-12-18T05:45:38;45.38;;;18.77;;
69900;SDS011;57183;50.930;5.406;2022-12-18T05:48:05;47.30;;;19.00;;
69900;SDS011;57183;50.930;5.406;2022-12-18T05:50:33;42.13;;;17.92;;
69900;SDS011;57183;50.930;5.406;2022-12-18T05:53:00;38.50;;;16.13;;
69900;SDS011;57183;50.930;5.406;2022-12-18T05:55:26;39.45;;;16.42;;
69900;SDS011;57183;50.930;5.406;2022-12-18T05:57:52;38.63;;;16.40;;
69900;SDS011;57183;50.930;5.406;2022-12-18T06:00:18;42.25;;;16.63;;
69900;SDS011;57183;50.930;5.406;2022-12-18T06:02:46;35.28;;;16.60;;
69900;SDS011;57183;50.930;5.406;2022-12-18T06:05:12;36.58;;;15.57;;
69900;SDS011;57183;50.930;5.406;2022-12-18T06:07:38;40.47;;;15.43;;
69900;SDS011;57183;50.930;5.406;2022-12-18T06:10:03;41.10;;;17.05;;
69900;SDS011;57183;50.930;5.406;2022-12-18T06:12:29;37.00;;;15.10;;
69900;SDS011;57183;50.930;5.406;2022-12-18T06:14:55;33.47;;;15.60;;
69900;SDS011;57183;50.930;5.406;2022-12-18T06:17:21;38.78;;;16.08;;
69900;SDS011;57183;50.930;5.406;2022-12-18T06:19:47;37.20;;;16.17;;
69900;SDS011;57183;50.930;5.406;2022-12-18T06:22:12;30.88;;;12.43;;
69900;SDS011;57183;50.930;5.406;2022-12-18T06:24:38;25.42;;;13.10;;
69900;SDS011;57183;50.930;5.406;2022-12-18T06:27:04;39.33;;;15.55;;
69900;SDS011;57183;50.930;5.406;2022-12-18T06:29:29;34.65;;;15.05;;
69900;SDS011;57183;50.930;5.406;2022-12-18T06:31:55;32.72;;;14.43;;
69900;SDS011;57183;50.930;5.406;2022-12-18T06:34:21;32.67;;;15.63;;
69900;SDS011;57183;50.930;5.406;2022-12-18T06:36:46;33.03;;;17.25;;
69900;SDS011;57183;50.930;5.406;2022-12-18T06:39:12;32.38;;;15.63;;
69900;SDS011;57183;50.930;5.406;2022-12-18T06:41:37;30.48;;;14.18;;
69900;SDS011;57183;50.930;5.406;2022-12-18T06:44:03;32.85;;;15.85;;
69900;SDS011;57183;50.930;5.406;2022-12-18T06:46:29;32.58;;;15.20;;
69900;SDS011;57183;50.930;5.406;2022-12-18T06:48:54;31.00;;;15.13;;
69900;SDS011;57183;50.930;5.406;2022-12-18T06:51:21;36.97;;;14.75;;
69900;SDS011;57183;50.930;5.406;2022-12-18T06:53:47;30.75;;;14.63;;
69900;SDS011;57183;50.930;5.406;2022-12-18T06:56:13;33.35;;;14.20;;
69900;SDS011;57183;50.930;5.406;2022-12-18T06:58:39;34.40;;;15.00;;
69900;SDS011;57183;50.930;5.406;2022-12-18T07:01:06;34.40;;;16.05;;
69900;SDS011;57183;50.930;5.406;2022-12-18T07:03:33;31.77;;;15.27;;
69900;SDS011;57183;50.930;5.406;2022-12-18T07:05:59;39.67;;;17.85;;
69900;SDS011;57183;50.930;5.406;2022-12-18T07:08:25;40.58;;;16.05;;
69900;SDS011;57183;50.930;5.406;2022-12-18T07:10:50;42.20;;;18.35;;
69900;SDS011;57183;50.930;5.406;2022-12-18T07:13:16;33.20;;;16.23;;
69900;SDS011;57183;50.930;5.406;2022-12-18T07:15:42;37.83;;;18.13;;
69900;SDS011;57183;50.930;5.406;2022-12-18T07:18:08;38.00;;;17.02;;
69900;SDS011;57183;50.930;5.406;2022-12-18T07:20:34;35.47;;;15.82;;
69900;SDS011;57183;50.930;5.406;2022-12-18T07:23:03;37.53;;;15.93;;
69900;SDS011;57183;50.930;5.406;2022-12-18T07:25:30;31.17;;;15.93;;
69900;SDS011;57183;50.930;5.406;2022-12-18T07:28:00;36.55;;;15.85;;
69900;SDS011;57183;50.930;5.406;2022-12-18T07:30:26;34.85;;;16.45;;
69900;SDS011;57183;50.930;5.406;2022-12-18T07:32:52;29.70;;;15.85;;
69900;SDS011;57183;50.930;5.406;2022-12-18T07:35:17;34.35;;;16.52;;
69900;SDS011;57183;50.930;5.406;2022-12-18T07:37:43;39.47;;;16.38;;
69900;SDS011;57183;50.930;5.406;2022-12-18T07:40:09;37.97;;;18.23;;
69900;SDS011;57183;50.930;5.406;2022-12-18T07:42:36;41.30;;;18.58;;
69900;SDS011;57183;50.930;5.406;2022-12-18T07:45:02;36.38;;;18.83;;
69900;SDS011;57183;50.930;5.406;2022-12-18T07:47:28;39.83;;;17.80;;
69900;SDS011;57183;50.930;5.406;2022-12-18T07:49:54;33.78;;;15.10;;
69900;SDS011;57183;50.930;5.406;2022-12-18T07:52:20;38.05;;;17.30;;
69900;SDS011;57183;50.930;5.406;2022-12-18T07:54:46;32.35;;;17.42;;
69900;SDS011;57183;50.930;5.406;2022-12-18T07:57:14;35.78;;;16.85;;
69900;SDS011;57183;50.930;5.406;2022-12-18T07:59:41;30.85;;;16.23;;
69900;SDS011;57183;50.930;5.406;2022-12-18T08:02:07;35.13;;;17.10;;
69900;SDS011;57183;50.930;5.406;2022-12-18T08:04:32;33.97;;;14.25;;
69900;SDS011;57183;50.930;5.406;2022-12-18T08:06:58;38.08;;;16.40;;
69900;SDS011;57183;50.930;5.406;2022-12-18T08:09:24;29.23;;;16.20;;
69900;SDS011;57183;50.930;5.406;2022-12-18T08:11:49;30.58;;;15.25;;
69900;SDS011;57183;50.930;5.406;2022-12-18T08:14:15;35.85;;;17.27;;
69900;SDS011;57183;50.930;5.406;2022-12-18T08:16:41;37.35;;;15.38;;
69900;SDS011;57183;50.930;5.406;2022-12-18T08:19:06;31.55;;;14.48;;
69900;SDS011;57183;50.930;5.406;2022-12-18T08:21:32;37.80;;;17.38;;
69900;SDS011;57183;50.930;5.406;2022-12-18T08:23:59;34.90;;;16.25;;
69900;SDS011;57183;50.930;5.406;2022-12-18T08:26:26;34.58;;;16.92;;
69900;SDS011;57183;50.930;5.406;2022-12-18T08:28:54;34.67;;;15.45;;
69900;SDS011;57183;50.930;5.406;2022-12-18T08:31:20;32.60;;;15.98;;
69900;SDS011;57183;50.930;5.406;2022-12-18T08:33:48;32.85;;;16.33;;
69900;SDS011;57183;50.930;5.406;2022-12-18T08:36:14;35.20;;;15.93;;
69900;SDS011;57183;50.930;5.406;2022-12-18T08:38:40;30.25;;;15.43;;
69900;SDS011;57183;50.930;5.406;2022-12-18T08:41:07;35.67;;;14.98;;
69900;SDS011;57183;50.930;5.406;2022-12-18T08:43:35;30.85;;;15.02;;
69900;SDS011;57183;50.930;5.406;2022-12-18T08:46:20;25.25;;;14.02;;
69900;SDS011;57183;50.930;5.406;2022-12-18T08:48:47;33.10;;;14.13;;
69900;SDS011;57183;50.930;5.406;2022-12-18T08:51:18;26.52;;;13.43;;
69900;SDS011;57183;50.930;5.406;2022-12-18T08:53:44;26.40;;;14.63;;
69900;SDS011;57183;50.930;5.406;2022-12-18T08:56:11;33.17;;;15.30;;
69900;SDS011;57183;50.930;5.406;2022-12-18T08:58:37;31.27;;;17.02;;
69900;SDS011;57183;50.930;5.406;2022-12-18T09:01:04;27.77;;;15.43;;
69900;SDS011;57183;50.930;5.406;2022-12-18T09:03:31;32.67;;;16.10;;
69900;SDS011;57183;50.930;5.406;2022-12-18T09:05:57;31.27;;;16.15;;
69900;SDS011;57183;50.930;5.406;2022-12-18T09:08:24;24.08;;;13.98;;
69900;SDS011;57183;50.930;5.406;2022-12-18T09:10:50;21.80;;;12.95;;
69900;SDS011;57183;50.930;5.406;2022-12-18T09:13:17;26.65;;;13.85;;
69900;SDS011;57183;50.930;5.406;2022-12-18T09:15:49;24.35;;;13.43;;
69900;SDS011;57183;50.930;5.406;2022-12-18T09:18:17;32.03;;;14.90;;
69900;SDS011;57183;50.930;5.406;2022-12-18T09:20:44;37.83;;;18.15;;
69900;SDS011;57183;50.930;5.406;2022-12-18T09:23:10;29.02;;;16.05;;
69900;SDS011;57183;50.930;5.406;2022-12-18T09:25:36;31.73;;;17.30;;
69900;SDS011;57183;50.930;5.406;2022-12-18T09:28:04;52.55;;;20.92;;
69900;SDS011;57183;50.930;5.406;2022-12-18T09:30:30;34.78;;;17.00;;
69900;SDS011;57183;50.930;5.406;2022-12-18T09:32:58;23.65;;;13.38;;
69900;SDS011;57183;50.930;5.406;2022-12-18T09:35:24;30.55;;;15.30;;
69900;SDS011;57183;50.930;5.406;2022-12-18T09:37:51;24.40;;;14.68;;
69900;SDS011;57183;50.930;5.406;2022-12-18T09:40:18;33.97;;;16.85;;
69900;SDS011;57183;50.930;5.406;2022-12-18T09:42:48;39.35;;;17.25;;
69900;SDS011;57183;50.930;5.406;2022-12-18T09:45:19;21.42;;;13.90;;
69900;SDS011;57183;50.930;5.406;2022-12-18T09:47:46;27.52;;;13.55;;
69900;SDS011;57183;50.930;5.406;2022-12-18T09:50:22;29.10;;;14.00;;
69900;SDS011;57183;50.930;5.406;2022-12-18T09:52:54;24.23;;;14.38;;
69900;SDS011;57183;50.930;5.406;2022-12-18T09:58:06;21.65;;;12.98;;
69900;SDS011;57183;50.930;5.406;2022-12-18T10:00:58;22.80;;;12.65;;
69900;SDS011;57183;50.930;5.406;2022-12-18T10:03:23;20.20;;;12.20;;
69900;SDS011;57183;50.930;5.406;2022-12-18T10:05:54;20.23;;;13.40;;
69900;SDS011;57183;50.930;5.406;2022-12-18T10:08:34;19.33;;;11.63;;
69900;SDS011;57183;50.930;5.406;2022-12-18T10:11:27;25.60;;;12.93;;
69900;SDS011;57183;50.930;5.406;2022-12-18T10:14:03;24.67;;;13.30;;
69900;SDS011;57183;50.930;5.406;2022-12-18T10:25:15;22.40;;;11.90;;
69900;SDS011;57183;50.930;5.406;2022-12-18T10:27:37;25.45;;;13.13;;
69900;SDS011;57183;50.930;5.406;2022-12-18T10:30:04;22.48;;;13.00;;
69900;SDS011;57183;50.930;5.406;2022-12-18T10:32:38;22.67;;;13.20;;
69900;SDS011;57183;50.930;5.406;2022-12-18T10:35:04;21.23;;;12.93;;
69900;SDS011;57183;50.930;5.406;2022-12-18T10:37:37;24.48;;;12.75;;
69900;SDS011;57183;50.930;5.406;2022-12-18T10:41:06;20.73;;;12.60;;
69900;SDS011;57183;50.930;5.406;2022-12-18T10:43:47;23.98;;;13.52;;
69900;SDS011;57183;50.930;5.406;2022-12-18T10:46:17;22.20;;;13.07;;
69900;SDS011;57183;50.930;5.406;2022-12-18T10:51:23;23.63;;;13.27;;
69900;SDS011;57183;50.930;5.406;2022-12-18T10:54:12;25.88;;;12.77;;
69900;SDS011;57183;50.930;5.406;2022-12-18T10:56:42;27.60;;;13.27;;
69900;SDS011;57183;50.930;5.406;2022-12-18T10:59:10;21.95;;;13.52;;
69900;SDS011;57183;50.930;5.406;2022-12-18T11:01:54;26.30;;;13.63;;
69900;SDS011;57183;50.930;5.406;2022-12-18T11:04:22;23.38;;;11.27;;
69900;SDS011;57183;50.930;5.406;2022-12-18T11:06:53;24.35;;;13.70;;
69900;SDS011;57183;50.930;5.406;2022-12-18T11:09:30;22.17;;;12.85;;
69900;SDS011;57183;50.930;5.406;2022-12-18T11:11:58;26.98;;;13.98;;
69900;SDS011;57183;50.930;5.406;2022-12-18T11:14:28;23.70;;;11.60;;
69900;SDS011;57183;50.930;5.406;2022-12-18T11:16:57;30.88;;;14.48;;
69900;SDS011;57183;50.930;5.406;2022-12-18T11:19:37;23.90;;;13.57;;
69900;SDS011;57183;50.930;5.406;2022-12-18T11:22:21;23.40;;;12.15;;
69900;SDS011;57183;50.930;5.406;2022-12-18T11:24:58;23.00;;;13.02;;
69900;SDS011;57183;50.930;5.406;2022-12-18T11:27:26;27.25;;;13.45;;
69900;SDS011;57183;50.930;5.406;2022-12-18T11:30:07;27.60;;;13.40;;
69900;SDS011;57183;50.930;5.406;2022-12-18T11:32:44;26.25;;;13.35;;
69900;SDS011;57183;50.930;5.406;2022-12-18T11:35:16;27.60;;;12.68;;
69900;SDS011;57183;50.930;5.406;2022-12-18T11:37:54;26.52;;;13.50;;
69900;SDS011;57183;50.930;5.406;2022-12-18T11:40:35;31.55;;;15.13;;
69900;SDS011;57183;50.930;5.406;2022-12-18T11:45:34;44.20;;;17.90;;
69900;SDS011;57183;50.930;5.406;2022-12-18T11:53:17;51.25;;;20.88;;
69900;SDS011;57183;50.930;5.406;2022-12-18T11:55:51;32.30;;;16.58;;
69900;SDS011;57183;50.930;5.406;2022-12-18T12:01:18;40.92;;;20.52;;
69900;SDS011;57183;50.930;5.406;2022-12-18T12:16:59;27.92;;;14.98;;
69900;SDS011;57183;50.930;5.406;2022-12-18T12:19:49;28.45;;;16.25;;
69900;SDS011;57183;50.930;5.406;2022-12-18T12:22:41;25.90;;;15.32;;
69900;SDS011;57183;50.930;5.406;2022-12-18T12:28:08;32.72;;;15.45;;
69900;SDS011;57183;50.930;5.406;2022-12-18T12:33:44;20.92;;;13.60;;
69900;SDS011;57183;50.930;5.406;2022-12-18T12:38:56;23.58;;;13.80;;
69900;SDS011;57183;50.930;5.406;2022-12-18T12:41:30;24.52;;;14.52;;
69900;SDS011;57183;50.930;5.406;2022-12-18T12:44:21;22.42;;;13.05;;
69900;SDS011;57183;50.930;5.406;2022-12-18T12:46:55;26.10;;;15.05;;
69900;SDS011;57183;50.930;5.406;2022-12-18T12:49:26;23.60;;;12.82;;
69900;SDS011;57183;50.930;5.406;2022-12-18T12:52:03;25.60;;;13.52;;
69900;SDS011;57183;50.930;5.406;2022-12-18T12:54:32;21.48;;;12.25;;
69900;SDS011;57183;50.930;5.406;2022-12-18T12:57:05;24.70;;;12.68;;
69900;SDS011;57183;50.930;5.406;2022-12-18T12:59:40;18.95;;;12.55;;
69900;SDS011;57183;50.930;5.406;2022-12-18T13:08:06;21.25;;;12.70;;
69900;SDS011;57183;50.930;5.406;2022-12-18T13:10:40;23.73;;;12.90;;
69900;SDS011;57183;50.930;5.406;2022-12-18T13:13:11;20.85;;;12.88;;
69900;SDS011;57183;50.930;5.406;2022-12-18T13:15:43;23.95;;;13.52;;
69900;SDS011;57183;50.930;5.406;2022-12-18T13:20:37;21.52;;;12.52;;
69900;SDS011;57183;50.930;5.406;2022-12-18T13:33:53;21.20;;;12.32;;
69900;SDS011;57183;50.930;5.406;2022-12-18T13:36:34;18.05;;;12.60;;
69900;SDS011;57183;50.930;5.406;2022-12-18T13:41:39;25.30;;;14.00;;
69900;SDS011;57183;50.930;5.406;2022-12-18T13:47:00;22.17;;;14.10;;
69900;SDS011;57183;50.930;5.406;2022-12-18T13:52:18;25.90;;;14.63;;
69900;SDS011;57183;50.930;5.406;2022-12-18T13:54:56;20.75;;;14.48;;
69900;SDS011;57183;50.930;5.406;2022-12-18T13:57:34;20.67;;;12.50;;
69900;SDS011;57183;50.930;5.406;2022-12-18T14:00:25;27.90;;;15.13;;
69900;SDS011;57183;50.930;5.406;2022-12-18T14:02:54;28.48;;;15.52;;
69900;SDS011;57183;50.930;5.406;2022-12-18T14:05:30;26.55;;;16.98;;
69900;SDS011;57183;50.930;5.406;2022-12-18T14:08:01;22.90;;;14.40;;
69900;SDS011;57183;50.930;5.406;2022-12-18T14:10:30;23.17;;;14.57;;
69900;SDS011;57183;50.930;5.406;2022-12-18T14:12:56;20.20;;;13.90;;
69900;SDS011;57183;50.930;5.406;2022-12-18T14:15:31;23.20;;;15.18;;
69900;SDS011;57183;50.930;5.406;2022-12-18T14:18:01;28.23;;;16.35;;
69900;SDS011;57183;50.930;5.406;2022-12-18T14:20:34;30.52;;;16.63;;
69900;SDS011;57183;50.930;5.406;2022-12-18T14:23:00;29.13;;;16.88;;
69900;SDS011;57183;50.930;5.406;2022-12-18T14:25:27;47.15;;;26.10;;
69900;SDS011;57183;50.930;5.406;2022-12-18T14:28:09;61.20;;;32.10;;
69900;SDS011;57183;50.930;5.406;2022-12-18T14:30:42;37.28;;;22.80;;
69900;SDS011;57183;50.930;5.406;2022-12-18T14:36:02;48.08;;;26.40;;
69900;SDS011;57183;50.930;5.406;2022-12-18T14:38:31;46.95;;;24.42;;
69900;SDS011;57183;50.930;5.406;2022-12-18T14:43:27;30.70;;;19.30;;
69900;SDS011;57183;50.930;5.406;2022-12-18T14:45:55;34.40;;;21.77;;
69900;SDS011;57183;50.930;5.406;2022-12-18T14:51:14;38.53;;;22.08;;
69900;SDS011;57183;50.930;5.406;2022-12-18T14:53:46;41.58;;;23.73;;
69900;SDS011;57183;50.930;5.406;2022-12-18T14:58:43;40.63;;;22.85;;
69900;SDS011;57183;50.930;5.406;2022-12-18T15:01:28;41.72;;;23.20;;
69900;SDS011;57183;50.930;5.406;2022-12-18T15:03:57;36.55;;;21.98;;
69900;SDS011;57183;50.930;5.406;2022-12-18T15:06:31;37.70;;;20.88;;
69900;SDS011;57183;50.930;5.406;2022-12-18T15:09:00;37.72;;;21.20;;
69900;SDS011;57183;50.930;5.406;2022-12-18T15:17:14;31.98;;;18.80;;
69900;SDS011;57183;50.930;5.406;2022-12-18T15:19:44;32.25;;;18.88;;
69900;SDS011;57183;50.930;5.406;2022-12-18T15:22:21;30.50;;;17.95;;
69900;SDS011;57183;50.930;5.406;2022-12-18T15:24:53;34.30;;;18.92;;
69900;SDS011;57183;50.930;5.406;2022-12-18T15:27:23;27.00;;;17.25;;
69900;SDS011;57183;50.930;5.406;2022-12-18T15:32:35;32.60;;;19.10;;
69900;SDS011;57183;50.930;5.406;2022-12-18T15:37:33;29.50;;;17.88;;
69900;SDS011;57183;50.930;5.406;2022-12-18T15:39:59;35.42;;;18.70;;
69900;SDS011;57183;50.930;5.406;2022-12-18T15:42:24;35.03;;;18.27;;
69900;SDS011;57183;50.930;5.406;2022-12-18T15:45:12;29.23;;;18.10;;
69900;SDS011;57183;50.930;5.406;2022-12-18T15:47:38;34.55;;;19.48;;
69900;SDS011;57183;50.930;5.406;2022-12-18T15:50:04;28.50;;;18.52;;
69900;SDS011;57183;50.930;5.406;2022-12-18T15:52:31;31.45;;;18.77;;
69900;SDS011;57183;50.930;5.406;2022-12-18T15:55:05;31.30;;;20.35;;
69900;SDS011;57183;50.930;5.406;2022-12-18T15:57:55;31.30;;;19.60;;
69900;SDS011;57183;50.930;5.406;2022-12-18T16:00:20;38.28;;;21.77;;
69900;SDS011;57183;50.930;5.406;2022-12-18T16:02:46;33.60;;;20.50;;
69900;SDS011;57183;50.930;5.406;2022-12-18T16:05:15;37.30;;;22.10;;
69900;SDS011;57183;50.930;5.406;2022-12-18T16:07:43;37.08;;;21.58;;
69900;SDS011;57183;50.930;5.406;2022-12-18T16:10:09;35.38;;;21.95;;
69900;SDS011;57183;50.930;5.406;2022-12-18T16:12:35;40.30;;;20.98;;
69900;SDS011;57183;50.930;5.406;2022-12-18T16:15:02;37.35;;;20.98;;
69900;SDS011;57183;50.930;5.406;2022-12-18T16:17:28;34.20;;;20.70;;
69900;SDS011;57183;50.930;5.406;2022-12-18T16:19:53;33.20;;;21.20;;
69900;SDS011;57183;50.930;5.406;2022-12-18T16:22:29;34.70;;;20.17;;
69900;SDS011;57183;50.930;5.406;2022-12-18T16:24:55;37.67;;;20.63;;
69900;SDS011;57183;50.930;5.406;2022-12-18T16:27:22;34.25;;;19.80;;
69900;SDS011;57183;50.930;5.406;2022-12-18T16:29:48;35.42;;;19.05;;
69900;SDS011;57183;50.930;5.406;2022-12-18T16:32:18;32.17;;;18.92;;
69900;SDS011;57183;50.930;5.406;2022-12-18T16:34:45;39.78;;;19.95;;
69900;SDS011;57183;50.930;5.406;2022-12-18T16:37:12;38.13;;;21.42;;
69900;SDS011;57183;50.930;5.406;2022-12-18T16:39:39;37.13;;;21.05;;
69900;SDS011;57183;50.930;5.406;2022-12-18T16:42:16;36.03;;;19.92;;